Kezdőlap
METAR-TAF:

METAR-TAF

Repülőterek :

Hagåtña, Guam, Amerikai Egyesült Államok

földrajzi szélesség: 13-29N, földrajzi hosszúság: 144-48E, magasság: 91 m

Jelenlegi meteorológiai megfigyelések

A jelentés 28 perccel ezelõtt készült, 13:54 UTC
Kelet-északkeleti szél 9 kt
Hőmérséklet 28°C
Páratartalom 94%
Légköri nyomás 1006 hPa
Látótávolság: 16.1 km
Kevés felhő 2200 lábon

METAR: PGUM 191354Z 06009KT 10SM FEW022 28/27 A2972 RMK AO2 SLP054 T02830267 403110267 $

Idő: 00:22 (14:22 UTC)

Előrejelzés

A jelentés 2 órával és 54 perccel ezelõtt készült, 11:28 UTC
Az előrejelzés 19-én 12 óra UTC és 20-én 18 óra UTC között érvényes
Kelet-északkeleti szél 9 kt
Látótávolság: 10 km
Kevés felhő 1800 lábon
Szakadozott felhőzet 20000 lábon
Záporok a közelben

TAF: PGUM 191128Z 1912/2018 06009KT P6SM VCSH FEW018 BKN200

Meteorológiai megfigyelések és előrejelzések több, mint 4000 repülőtéren (METAR és TAF jelentéseket).

A térképen piros és sárga pontok jelzik az elérhető meteorológiai állomásokat.

Mozgassa az egeret a pont fölött, hogy megjelenjen az állomás neve.

Azután kattintson az időjárási megfigyelések és előrejelzések megtekintéséhez.

A térkép megváltoztatása: kattintson a fekete keresztel jelölt zöld gombra ráközelítéshez, a vonallal jelölt zöld gombra távolításhoz, vagy a zöld nyilakra a szomszédos térképek eléréséhez.


METAR-TAF: